sensor_id;sensor_type;location;lat;lon;timestamp;P1;durP1;ratioP1;P2;durP2;ratioP2
55663;SDS011;41540;57.880;12.164;2023-03-11T00:00:52;5.68;;;4.05;;
55663;SDS011;41540;57.880;12.164;2023-03-11T00:10:56;5.82;;;4.28;;
55663;SDS011;41540;57.880;12.164;2023-03-11T00:21:02;9.35;;;5.45;;
55663;SDS011;41540;57.880;12.164;2023-03-11T00:31:02;6.25;;;4.82;;
55663;SDS011;41540;57.880;12.164;2023-03-11T00:41:03;11.60;;;6.00;;
55663;SDS011;41540;57.880;12.164;2023-03-11T00:51:12;18.30;;;14.35;;
55663;SDS011;41540;57.880;12.164;2023-03-11T01:01:15;5.90;;;4.55;;
55663;SDS011;41540;57.880;12.164;2023-03-11T01:11:15;7.25;;;4.32;;
55663;SDS011;41540;57.880;12.164;2023-03-11T01:21:17;7.30;;;4.25;;
55663;SDS011;41540;57.880;12.164;2023-03-11T01:31:18;5.55;;;4.57;;
55663;SDS011;41540;57.880;12.164;2023-03-11T01:41:18;4.68;;;4.13;;
55663;SDS011;41540;57.880;12.164;2023-03-11T02:01:35;5.20;;;3.20;;
55663;SDS011;41540;57.880;12.164;2023-03-11T02:11:38;3.70;;;3.33;;
55663;SDS011;41540;57.880;12.164;2023-03-11T02:21:38;4.45;;;3.42;;
55663;SDS011;41540;57.880;12.164;2023-03-11T02:31:39;4.53;;;3.88;;
55663;SDS011;41540;57.880;12.164;2023-03-11T02:41:43;4.47;;;3.30;;
55663;SDS011;41540;57.880;12.164;2023-03-11T02:51:46;7.10;;;3.25;;
55663;SDS011;41540;57.880;12.164;2023-03-11T03:01:47;3.70;;;3.15;;
55663;SDS011;41540;57.880;12.164;2023-03-11T03:11:48;6.22;;;3.55;;
55663;SDS011;41540;57.880;12.164;2023-03-11T03:21:48;6.18;;;2.65;;
55663;SDS011;41540;57.880;12.164;2023-03-11T03:31:49;3.35;;;2.60;;
55663;SDS011;41540;57.880;12.164;2023-03-11T03:41:49;4.13;;;3.10;;
55663;SDS011;41540;57.880;12.164;2023-03-11T03:51:49;4.50;;;2.67;;
55663;SDS011;41540;57.880;12.164;2023-03-11T04:01:50;4.75;;;2.95;;
55663;SDS011;41540;57.880;12.164;2023-03-11T04:11:50;4.30;;;3.17;;
55663;SDS011;41540;57.880;12.164;2023-03-11T04:21:52;6.88;;;2.60;;
55663;SDS011;41540;57.880;12.164;2023-03-11T04:31:53;3.95;;;2.55;;
55663;SDS011;41540;57.880;12.164;2023-03-11T04:41:53;3.65;;;2.40;;
55663;SDS011;41540;57.880;12.164;2023-03-11T04:51:53;4.80;;;3.10;;
55663;SDS011;41540;57.880;12.164;2023-03-11T05:01:55;6.78;;;2.80;;
55663;SDS011;41540;57.880;12.164;2023-03-11T05:11:55;4.00;;;2.95;;
55663;SDS011;41540;57.880;12.164;2023-03-11T05:21:56;4.70;;;3.30;;
55663;SDS011;41540;57.880;12.164;2023-03-11T05:31:57;2.50;;;2.17;;
55663;SDS011;41540;57.880;12.164;2023-03-11T05:41:57;3.42;;;2.38;;
55663;SDS011;41540;57.880;12.164;2023-03-11T05:51:57;5.82;;;2.40;;
55663;SDS011;41540;57.880;12.164;2023-03-11T06:01:58;2.53;;;1.77;;
55663;SDS011;41540;57.880;12.164;2023-03-11T06:11:59;4.15;;;2.30;;
55663;SDS011;41540;57.880;12.164;2023-03-11T06:21:59;3.22;;;2.47;;
55663;SDS011;41540;57.880;12.164;2023-03-11T06:31:59;2.60;;;2.40;;
55663;SDS011;41540;57.880;12.164;2023-03-11T06:41:59;3.63;;;2.22;;
55663;SDS011;41540;57.880;12.164;2023-03-11T06:52:03;2.22;;;1.92;;
55663;SDS011;41540;57.880;12.164;2023-03-11T07:02:11;3.05;;;2.10;;
55663;SDS011;41540;57.880;12.164;2023-03-11T07:12:12;2.50;;;1.85;;
55663;SDS011;41540;57.880;12.164;2023-03-11T07:22:14;1.92;;;1.73;;
55663;SDS011;41540;57.880;12.164;2023-03-11T07:32:17;3.78;;;2.58;;
55663;SDS011;41540;57.880;12.164;2023-03-11T07:42:18;2.20;;;1.63;;
55663;SDS011;41540;57.880;12.164;2023-03-11T07:52:18;2.22;;;2.03;;
55663;SDS011;41540;57.880;12.164;2023-03-11T08:02:19;2.45;;;2.00;;
55663;SDS011;41540;57.880;12.164;2023-03-11T08:12:19;5.45;;;2.47;;
55663;SDS011;41540;57.880;12.164;2023-03-11T08:22:19;1.75;;;1.65;;
55663;SDS011;41540;57.880;12.164;2023-03-11T08:32:19;1.40;;;1.30;;
55663;SDS011;41540;57.880;12.164;2023-03-11T08:42:20;1.50;;;1.40;;
55663;SDS011;41540;57.880;12.164;2023-03-11T08:52:20;1.73;;;1.60;;
55663;SDS011;41540;57.880;12.164;2023-03-11T09:02:20;1.23;;;1.00;;
55663;SDS011;41540;57.880;12.164;2023-03-11T09:12:20;1.35;;;1.25;;
55663;SDS011;41540;57.880;12.164;2023-03-11T09:22:21;2.03;;;1.47;;
55663;SDS011;41540;57.880;12.164;2023-03-11T09:32:21;1.25;;;1.13;;
55663;SDS011;41540;57.880;12.164;2023-03-11T09:42:24;0.95;;;0.90;;
55663;SDS011;41540;57.880;12.164;2023-03-11T09:52:29;3.78;;;1.33;;
55663;SDS011;41540;57.880;12.164;2023-03-11T10:02:31;1.90;;;1.00;;
55663;SDS011;41540;57.880;12.164;2023-03-11T10:12:42;1.88;;;1.17;;
55663;SDS011;41540;57.880;12.164;2023-03-11T10:42:52;2.38;;;1.58;;
55663;SDS011;41540;57.880;12.164;2023-03-11T10:53:03;2.30;;;1.38;;
55663;SDS011;41540;57.880;12.164;2023-03-11T11:03:23;3.03;;;1.50;;
55663;SDS011;41540;57.880;12.164;2023-03-11T11:13:24;2.58;;;1.80;;
55663;SDS011;41540;57.880;12.164;2023-03-11T11:33:32;1.60;;;1.40;;
55663;SDS011;41540;57.880;12.164;2023-03-11T12:15:05;3.20;;;1.73;;
55663;SDS011;41540;57.880;12.164;2023-03-11T12:25:26;4.78;;;1.58;;
55663;SDS011;41540;57.880;12.164;2023-03-11T13:16:36;3.45;;;2.20;;
55663;SDS011;41540;57.880;12.164;2023-03-11T13:26:40;3.13;;;2.03;;
55663;SDS011;41540;57.880;12.164;2023-03-11T13:46:56;7.50;;;2.30;;
55663;SDS011;41540;57.880;12.164;2023-03-11T13:56:58;6.40;;;2.47;;
55663;SDS011;41540;57.880;12.164;2023-03-11T14:06:59;2.55;;;1.45;;
55663;SDS011;41540;57.880;12.164;2023-03-11T14:16:59;3.95;;;1.63;;
55663;SDS011;41540;57.880;12.164;2023-03-11T14:27:05;3.37;;;1.70;;
55663;SDS011;41540;57.880;12.164;2023-03-11T14:37:14;13.37;;;1.70;;
55663;SDS011;41540;57.880;12.164;2023-03-11T14:47:24;2.20;;;1.48;;
55663;SDS011;41540;57.880;12.164;2023-03-11T14:57:38;4.63;;;1.83;;
55663;SDS011;41540;57.880;12.164;2023-03-11T15:07:40;2.08;;;1.48;;
55663;SDS011;41540;57.880;12.164;2023-03-11T15:17:40;8.32;;;1.30;;
55663;SDS011;41540;57.880;12.164;2023-03-11T15:27:50;6.68;;;1.63;;
55663;SDS011;41540;57.880;12.164;2023-03-11T15:38:10;5.10;;;1.75;;
55663;SDS011;41540;57.880;12.164;2023-03-11T15:48:12;2.55;;;1.20;;
55663;SDS011;41540;57.880;12.164;2023-03-11T15:58:14;6.63;;;1.58;;
55663;SDS011;41540;57.880;12.164;2023-03-11T16:08:15;2.63;;;1.10;;
55663;SDS011;41540;57.880;12.164;2023-03-11T16:18:15;3.92;;;1.70;;
55663;SDS011;41540;57.880;12.164;2023-03-11T16:28:15;6.68;;;1.73;;
55663;SDS011;41540;57.880;12.164;2023-03-11T16:38:16;6.28;;;1.80;;
55663;SDS011;41540;57.880;12.164;2023-03-11T16:48:18;7.97;;;1.60;;
55663;SDS011;41540;57.880;12.164;2023-03-11T16:58:18;3.65;;;1.67;;
55663;SDS011;41540;57.880;12.164;2023-03-11T17:08:19;2.50;;;1.43;;
55663;SDS011;41540;57.880;12.164;2023-03-11T17:18:21;3.85;;;1.58;;
55663;SDS011;41540;57.880;12.164;2023-03-11T17:28:21;5.07;;;2.22;;
55663;SDS011;41540;57.880;12.164;2023-03-11T17:38:22;1.40;;;1.30;;
55663;SDS011;41540;57.880;12.164;2023-03-11T18:08:47;1.10;;;1.08;;
55663;SDS011;41540;57.880;12.164;2023-03-11T18:18:50;3.08;;;1.90;;
55663;SDS011;41540;57.880;12.164;2023-03-11T19:09:32;12.57;;;11.23;;
55663;SDS011;41540;57.880;12.164;2023-03-11T19:19:33;3.92;;;3.00;;
55663;SDS011;41540;57.880;12.164;2023-03-11T19:39:44;11.30;;;3.95;;
55663;SDS011;41540;57.880;12.164;2023-03-11T19:49:44;42.92;;;29.33;;
55663;SDS011;41540;57.880;12.164;2023-03-11T19:59:45;29.08;;;26.30;;
55663;SDS011;41540;57.880;12.164;2023-03-11T20:09:45;25.52;;;22.80;;
55663;SDS011;41540;57.880;12.164;2023-03-11T20:19:47;10.63;;;9.23;;
55663;SDS011;41540;57.880;12.164;2023-03-11T20:29:51;6.03;;;5.43;;
55663;SDS011;41540;57.880;12.164;2023-03-11T20:39:56;6.28;;;2.88;;
55663;SDS011;41540;57.880;12.164;2023-03-11T20:49:59;7.32;;;5.10;;
55663;SDS011;41540;57.880;12.164;2023-03-11T20:59:59;6.13;;;5.03;;
55663;SDS011;41540;57.880;12.164;2023-03-11T21:10:01;1.73;;;1.60;;
55663;SDS011;41540;57.880;12.164;2023-03-11T21:30:25;2.47;;;1.80;;
55663;SDS011;41540;57.880;12.164;2023-03-11T21:40:25;11.18;;;6.32;;
55663;SDS011;41540;57.880;12.164;2023-03-11T21:50:27;5.55;;;2.88;;
55663;SDS011;41540;57.880;12.164;2023-03-11T22:00:27;16.92;;;8.45;;
55663;SDS011;41540;57.880;12.164;2023-03-11T22:10:29;8.55;;;3.38;;
55663;SDS011;41540;57.880;12.164;2023-03-11T22:31:11;2.22;;;1.73;;
55663;SDS011;41540;57.880;12.164;2023-03-11T22:41:15;3.70;;;1.30;;
55663;SDS011;41540;57.880;12.164;2023-03-11T22:51:18;5.97;;;1.60;;
55663;SDS011;41540;57.880;12.164;2023-03-11T23:01:21;2.08;;;1.50;;
55663;SDS011;41540;57.880;12.164;2023-03-11T23:11:21;6.00;;;1.92;;
55663;SDS011;41540;57.880;12.164;2023-03-11T23:21:28;3.38;;;0.95;;
55663;SDS011;41540;57.880;12.164;2023-03-11T23:31:31;11.77;;;1.52;;
55663;SDS011;41540;57.880;12.164;2023-03-11T23:41:31;6.60;;;1.92;;
55663;SDS011;41540;57.880;12.164;2023-03-11T23:51:32;4.28;;;1.15;;
